Time;durP1;ratioP1;P1;durP2;ratioP2;P2;SDS_P1;SDS_P2;PMS_P1;PMS_P2;Temp;Humidity;BMP_temperature;BMP_pressure;BME280_temperature;BME280_humidity;BME280_pressure;Samples;Min_cycle;Max_cycle;Signal;HPM_P1;HPM_P2
2022/05/08 00:01:09;;;;;;;6.90;3.60;;;14.20;94.70;;;;;;5055718;28;20024;-79
2022/05/08 00:03:35;;;;;;;4.93;3.80;;;14.10;94.90;;;;;;5071179;28;20032;-79
2022/05/08 00:06:07;;;;;;;5.88;3.92;;;14.10;95.10;;;;;;5073418;28;20033;-81
2022/05/08 00:08:33;;;;;;;6.78;4.38;;;14.10;95.10;;;;;;5064878;28;20500;-78
2022/05/08 00:10:59;;;;;;;4.40;4.00;;;14.10;95.10;;;;;;5053806;28;20457;-79
2022/05/08 00:13:25;;;;;;;5.72;4.07;;;14.10;95.20;;;;;;5051892;28;20033;-78
2022/05/08 00:15:51;;;;;;;5.20;4.05;;;14.00;95.30;;;;;;5069050;28;20028;-79
2022/05/08 00:18:18;;;;;;;6.20;4.47;;;14.00;95.50;;;;;;5057485;28;20025;-78
2022/05/08 00:20:44;;;;;;;3.97;3.58;;;14.00;95.60;;;;;;5051744;28;20025;-78
2022/05/08 00:23:10;;;;;;;6.45;3.90;;;13.90;95.80;;;;;;5065612;28;20389;-79
2022/05/08 00:25:37;;;;;;;5.97;3.80;;;13.80;95.90;;;;;;5070351;28;20043;-78
2022/05/08 00:28:03;;;;;;;7.65;4.80;;;13.80;96.00;;;;;;5070836;28;20032;-79
2022/05/08 00:30:29;;;;;;;5.63;3.97;;;13.80;96.10;;;;;;5062169;28;20476;-78
2022/05/08 00:32:56;;;;;;;4.97;3.75;;;13.80;96.20;;;;;;5071248;28;20059;-77
2022/05/08 00:35:22;;;;;;;5.32;3.58;;;13.70;96.40;;;;;;5071223;28;20036;-79
2022/05/08 00:37:48;;;;;;;8.90;5.13;;;13.60;96.60;;;;;;5071892;28;20059;-78
2022/05/08 00:40:14;;;;;;;4.15;3.78;;;13.60;96.70;;;;;;5069321;28;20045;-78
2022/05/08 00:42:41;;;;;;;4.82;4.38;;;13.60;96.90;;;;;;5066606;28;20496;-79
2022/05/08 00:45:08;;;;;;;6.07;4.78;;;13.60;97.00;;;;;;5075088;28;20036;-82
2022/05/08 00:47:35;;;;;;;7.20;4.38;;;13.50;97.20;;;;;;5074658;28;20037;-78
2022/05/08 00:50:02;;;;;;;5.53;5.03;;;13.50;97.20;;;;;;5064499;28;20048;-81
2022/05/08 00:52:29;;;;;;;5.32;4.47;;;13.50;97.50;;;;;;5067347;28;20036;-80
2022/05/08 00:54:59;;;;;;;6.18;4.80;;;13.40;97.70;;;;;;5074487;28;20032;-81
2022/05/08 00:57:26;;;;;;;9.70;4.82;;;13.40;97.80;;;;;;5057400;28;20029;-80
2022/05/08 00:59:53;;;;;;;7.22;5.35;;;13.40;97.90;;;;;;5055676;28;20491;-80
2022/05/08 01:02:19;;;;;;;5.03;4.53;;;13.30;98.00;;;;;;5068022;28;20051;-80
2022/05/08 01:04:45;;;;;;;5.05;4.55;;;13.30;98.20;;;;;;5055963;28;20036;-81
2022/05/08 01:07:12;;;;;;;8.25;4.60;;;13.30;98.10;;;;;;5070790;28;20032;-80
2022/05/08 01:09:38;;;;;;;6.68;5.07;;;13.30;98.10;;;;;;5063825;28;20038;-80
2022/05/08 01:12:07;;;;;;;7.38;4.60;;;13.30;98.20;;;;;;5074674;28;20048;-82
2022/05/08 01:14:33;;;;;;;7.93;5.40;;;13.30;98.30;;;;;;5058187;28;20037;-80
2022/05/08 01:17:00;;;;;;;11.52;4.90;;;13.30;98.40;;;;;;5074852;28;20055;-80
2022/05/08 01:19:26;;;;;;;5.53;3.83;;;13.30;98.50;;;;;;5074646;28;20037;-80
2022/05/08 01:21:52;;;;;;;5.63;4.85;;;13.20;98.70;;;;;;5040060;28;20059;-80
2022/05/08 01:24:22;;;;;;;7.28;5.78;;;13.20;98.90;;;;;;5036820;28;20033;-80
2022/05/08 01:26:49;;;;;;;5.47;4.75;;;13.10;99.30;;;;;;5064013;28;20561;-80
2022/05/08 01:29:17;;;;;;;5.28;4.75;;;13.10;99.30;;;;;;5074530;28;20052;-80
2022/05/08 01:31:43;;;;;;;6.30;5.70;;;13.00;99.50;;;;;;5062165;28;20044;-81
2022/05/08 01:34:09;;;;;;;5.90;5.28;;;13.00;99.80;;;;;;5067188;28;20416;-81
2022/05/08 01:36:35;;;;;;;7.55;5.50;;;12.90;99.90;;;;;;5075204;28;20040;-80
2022/05/08 01:39:02;;;;;;;5.50;5.00;;;12.90;99.90;;;;;;5034920;28;20041;-80
2022/05/08 01:41:28;;;;;;;7.35;6.53;;;12.80;99.90;;;;;;5070061;28;20465;-80
2022/05/08 01:43:54;;;;;;;6.40;5.88;;;12.80;99.90;;;;;;5074316;28;20032;-80
2022/05/08 01:46:20;;;;;;;9.88;7.18;;;12.80;99.90;;;;;;5068599;28;20045;-81
2022/05/08 01:48:48;;;;;;;7.30;5.90;;;12.80;99.90;;;;;;5074532;28;20024;-80
2022/05/08 01:51:16;;;;;;;5.97;5.35;;;12.70;99.90;;;;;;5064327;28;20028;-80
2022/05/08 01:53:44;;;;;;;8.18;5.90;;;12.70;99.90;;;;;;5063823;28;20029;-80
2022/05/08 01:56:10;;;;;;;9.70;6.47;;;12.70;99.90;;;;;;5036012;28;20037;-80
2022/05/08 01:58:36;;;;;;;6.75;5.93;;;12.60;99.90;;;;;;5062943;28;20024;-81
2022/05/08 02:01:08;;;;;;;5.93;5.30;;;12.50;99.90;;;;;;5053929;28;20029;-80
2022/05/08 02:03:34;;;;;;;8.43;5.32;;;12.40;99.90;;;;;;5054651;28;20040;-79
2022/05/08 02:06:00;;;;;;;6.13;5.53;;;12.50;99.90;;;;;;5036750;28;20477;-79
2022/05/08 02:08:27;;;;;;;10.30;6.70;;;12.40;99.90;;;;;;5060927;28;20041;-80
2022/05/08 02:10:53;;;;;;;7.07;5.75;;;12.30;99.90;;;;;;5053607;28;20365;-80
2022/05/08 02:13:19;;;;;;;7.78;5.78;;;12.20;99.90;;;;;;5054566;28;20056;-80
2022/05/08 02:15:46;;;;;;;6.18;5.68;;;12.10;99.90;;;;;;5072719;28;20024;-80
2022/05/08 02:18:12;;;;;;;7.75;6.28;;;12.10;99.90;;;;;;5035568;28;20055;-80
2022/05/08 02:20:39;;;;;;;8.60;6.80;;;12.10;99.90;;;;;;5035838;28;20049;-80
2022/05/08 02:23:06;;;;;;;9.55;6.53;;;12.00;99.90;;;;;;5060532;28;20028;-80
2022/05/08 02:25:32;;;;;;;6.97;6.32;;;12.00;99.90;;;;;;5072332;28;20033;-80
2022/05/08 02:28:00;;;;;;;7.05;6.35;;;12.00;99.90;;;;;;5072986;28;20385;-80
2022/05/08 02:30:26;;;;;;;6.95;6.30;;;12.00;99.90;;;;;;5073299;28;20032;-80
2022/05/08 02:32:56;;;;;;;6.53;5.85;;;11.90;99.90;;;;;;5055833;28;20041;-80
2022/05/08 02:35:22;;;;;;;6.75;6.13;;;11.80;99.90;;;;;;5066704;28;20401;-80
2022/05/08 02:37:54;;;;;;;7.47;6.80;;;11.70;99.90;;;;;;5071851;28;20044;-80
2022/05/08 02:40:24;;;;;;;7.53;6.32;;;11.60;99.90;;;;;;5074927;28;20044;-80
2022/05/08 02:42:51;;;;;;;6.82;5.75;;;11.60;99.90;;;;;;5054561;28;20896;-80
2022/05/08 02:45:18;;;;;;;7.88;6.55;;;11.50;99.90;;;;;;5058688;28;20031;-81
2022/05/08 02:47:44;;;;;;;7.25;6.55;;;11.40;99.90;;;;;;5071803;28;20099;-80
2022/05/08 02:50:11;;;;;;;6.40;5.88;;;11.40;99.90;;;;;;5072741;28;20033;-80
2022/05/08 02:52:39;;;;;;;7.72;6.97;;;11.30;99.90;;;;;;5061684;28;20032;-81
2022/05/08 03:00:38;;;;;;;6.28;5.68;;;11.30;99.90;;;;;;5060338;28;20033;-80
2022/05/08 03:03:05;;;;;;;6.00;5.45;;;11.20;99.90;;;;;;5072030;28;20028;-80
2022/05/08 03:05:32;;;;;;;6.43;5.82;;;11.10;99.90;;;;;;5048554;28;20083;-80
2022/05/08 03:07:59;;;;;;;7.60;6.82;;;10.90;99.90;;;;;;5034422;28;20056;-80
2022/05/08 03:10:25;;;;;;;7.45;6.75;;;10.90;99.90;;;;;;5062920;28;20032;-80
2022/05/08 03:12:51;;;;;;;8.73;7.82;;;10.80;99.90;;;;;;5055260;28;20482;-80
2022/05/08 03:15:17;;;;;;;10.23;8.75;;;10.80;99.90;;;;;;5070237;28;20044;-80
2022/05/08 03:17:44;;;;;;;10.20;9.18;;;10.70;99.90;;;;;;5071657;28;20037;-79
2022/05/08 03:20:11;;;;;;;9.15;7.95;;;10.60;99.90;;;;;;5071412;28;20033;-79
2022/05/08 03:22:37;;;;;;;9.05;8.15;;;10.60;99.90;;;;;;5069826;28;20028;-80
2022/05/08 03:25:04;;;;;;;9.88;8.73;;;10.60;99.90;;;;;;5052460;28;20055;-79
2022/05/08 03:27:30;;;;;;;11.68;9.43;;;10.70;99.90;;;;;;5071306;28;20032;-79
2022/05/08 03:29:58;;;;;;;10.95;9.90;;;10.70;99.90;;;;;;5075507;28;20036;-80
2022/05/08 03:32:24;;;;;;;13.35;10.60;;;10.70;99.90;;;;;;5075099;28;20035;-80
2022/05/08 03:34:50;;;;;;;9.20;8.27;;;10.70;99.90;;;;;;5036247;28;20608;-80
2022/05/08 03:37:17;;;;;;;10.13;9.05;;;10.70;99.90;;;;;;5053471;28;20048;-80
2022/05/08 03:39:43;;;;;;;9.75;8.80;;;10.70;99.90;;;;;;5053233;28;20478;-80
2022/05/08 03:42:10;;;;;;;12.05;8.15;;;10.70;99.90;;;;;;5052380;28;20041;-80
2022/05/08 03:44:37;;;;;;;14.07;9.05;;;10.70;99.90;;;;;;5051626;28;20466;-80
2022/05/08 03:47:03;;;;;;;10.35;9.20;;;10.70;99.90;;;;;;5053560;28;20033;-80
2022/05/08 03:49:29;;;;;;;10.70;9.43;;;10.60;99.90;;;;;;5062301;28;20462;-79
2022/05/08 03:51:56;;;;;;;11.23;10.07;;;10.50;99.90;;;;;;5071701;28;20036;-80
2022/05/08 03:54:22;;;;;;;12.32;9.98;;;10.60;99.90;;;;;;5071942;28;20400;-80
2022/05/08 03:56:48;;;;;;;10.38;9.45;;;10.60;99.90;;;;;;5070675;28;20238;-79
2022/05/08 03:59:14;;;;;;;10.90;9.85;;;10.70;99.90;;;;;;5063081;28;20051;-80
2022/05/08 04:01:42;;;;;;;10.98;9.48;;;10.70;99.90;;;;;;5052250;28;20040;-79
2022/05/08 04:04:11;;;;;;;8.90;8.15;;;10.70;99.90;;;;;;5063312;28;20045;-79
2022/05/08 04:06:37;;;;;;;11.00;9.85;;;10.80;99.90;;;;;;5057734;28;20025;-80
2022/05/08 04:09:04;;;;;;;12.80;9.15;;;10.80;99.90;;;;;;5071401;28;20043;-79
2022/05/08 04:11:30;;;;;;;10.63;9.70;;;10.80;99.90;;;;;;5041877;28;20033;-79
2022/05/08 04:13:56;;;;;;;10.68;9.68;;;10.90;99.90;;;;;;5066312;28;20469;-79
2022/05/08 04:16:24;;;;;;;11.88;10.75;;;10.90;99.90;;;;;;5057014;28;20040;-79
2022/05/08 04:18:51;;;;;;;10.88;9.90;;;10.90;99.90;;;;;;5057784;28;20033;-79
2022/05/08 04:21:17;;;;;;;11.15;10.15;;;10.90;99.90;;;;;;5067955;28;20040;-79
2022/05/08 04:26:30;;;;;;;10.70;9.43;;;11.00;99.90;;;;;;5075089;28;20485;-80
2022/05/08 04:28:57;;;;;;;10.07;9.07;;;11.10;99.90;;;;;;5074766;28;20025;-80
2022/05/08 04:31:24;;;;;;;10.45;9.45;;;11.00;99.90;;;;;;5068777;28;20037;-79
2022/05/08 04:33:51;;;;;;;13.02;9.68;;;11.10;99.90;;;;;;5067173;28;20108;-79
2022/05/08 04:36:18;;;;;;;8.43;7.47;;;11.00;99.90;;;;;;5074753;28;20052;-79
2022/05/08 04:38:45;;;;;;;10.07;9.07;;;11.10;99.90;;;;;;5074174;28;20053;-79
2022/05/08 04:41:11;;;;;;;10.45;9.00;;;11.30;99.90;;;;;;5065696;28;20029;-79
2022/05/08 04:43:40;;;;;;;9.52;7.75;;;11.70;99.90;;;;;;5074618;28;20032;-79
2022/05/08 04:46:08;;;;;;;7.00;6.40;;;12.50;99.90;;;;;;5061325;28;20044;-79
2022/05/08 04:48:34;;;;;;;7.82;6.55;;;13.00;99.90;;;;;;5055347;28;20044;-79
2022/05/08 04:51:00;;;;;;;8.60;7.40;;;13.00;99.90;;;;;;5074090;28;20040;-80
2022/05/08 04:53:26;;;;;;;7.25;6.32;;;12.80;99.90;;;;;;5074531;28;20481;-79
2022/05/08 04:55:52;;;;;;;8.32;7.50;;;12.70;99.90;;;;;;5073954;28;20116;-79
2022/05/08 04:58:18;;;;;;;7.32;6.57;;;12.40;99.90;;;;;;5057433;28;20029;-79
2022/05/08 05:00:45;;;;;;;8.27;7.05;;;12.10;99.90;;;;;;5036639;28;20041;-79
2022/05/08 05:03:11;;;;;;;7.90;6.55;;;11.90;99.90;;;;;;5055394;28;20036;-80
2022/05/08 05:05:37;;;;;;;8.43;7.63;;;11.90;99.90;;;;;;5072265;28;20512;-80
2022/05/08 05:08:05;;;;;;;7.03;6.43;;;11.90;99.90;;;;;;5056181;28;20039;-80
2022/05/08 05:10:31;;;;;;;8.70;6.88;;;11.80;99.90;;;;;;5055852;28;20040;-79
2022/05/08 05:12:57;;;;;;;8.25;7.53;;;11.90;99.90;;;;;;5066209;28;20032;-79
2022/05/08 05:15:24;;;;;;;8.68;7.70;;;11.90;99.90;;;;;;5071667;28;20036;-79
2022/05/08 05:17:53;;;;;;;8.88;8.00;;;11.90;99.90;;;;;;5059914;28;20041;-80
2022/05/08 05:20:19;;;;;;;8.57;7.63;;;11.80;99.90;;;;;;5056654;28;20496;-80
2022/05/08 05:22:45;;;;;;;10.80;8.18;;;11.80;99.90;;;;;;5068769;28;20033;-79
2022/05/08 05:25:12;;;;;;;9.23;6.95;;;11.90;99.90;;;;;;5063726;28;20454;-81
2022/05/08 05:27:38;;;;;;;9.10;7.82;;;11.90;99.90;;;;;;5065130;28;20047;-80
2022/05/08 05:30:05;;;;;;;8.70;7.90;;;11.90;99.90;;;;;;5068318;28;20028;-78
2022/05/08 05:32:31;;;;;;;10.55;7.93;;;11.90;99.90;;;;;;5064798;28;20025;-79
2022/05/08 05:34:57;;;;;;;8.38;7.53;;;11.90;99.90;;;;;;5063991;28;20381;-78
2022/05/08 05:37:23;;;;;;;7.45;6.63;;;12.10;99.90;;;;;;5073031;28;20056;-79
2022/05/08 05:39:50;;;;;;;8.35;6.68;;;12.20;99.90;;;;;;5061468;28;20033;-79
2022/05/08 05:42:16;;;;;;;8.35;6.95;;;12.20;99.90;;;;;;5071058;28;20032;-80
2022/05/08 05:44:42;;;;;;;6.78;6.25;;;12.40;99.90;;;;;;5068103;28;20551;-79
2022/05/08 05:49:53;;;;;;;7.00;6.30;;;12.60;99.90;;;;;;5073316;28;20051;-79
2022/05/08 05:52:19;;;;;;;11.77;6.65;;;12.70;99.90;;;;;;5073764;28;20461;-79
2022/05/08 05:54:45;;;;;;;7.80;7.07;;;12.70;99.90;;;;;;5055700;28;20025;-79
2022/05/08 05:57:11;;;;;;;6.75;6.07;;;12.80;99.90;;;;;;5036356;28;20033;-79
2022/05/08 05:59:37;;;;;;;6.85;5.80;;;13.20;99.90;;;;;;5072488;28;20037;-79
2022/05/08 06:02:03;;;;;;;6.28;5.68;;;14.50;99.90;;;;;;5063055;28;20013;-79
2022/05/08 06:04:30;;;;;;;5.93;4.20;;;15.50;99.90;;;;;;5073447;28;20040;-80
2022/05/08 06:06:56;;;;;;;8.43;4.57;;;16.10;99.90;;;;;;5073093;28;20040;-80
2022/05/08 06:09:22;;;;;;;6.80;4.63;;;15.50;99.90;;;;;;5073103;28;20036;-80
2022/05/08 06:11:48;;;;;;;6.18;4.40;;;15.40;99.90;;;;;;5072731;28;20028;-80
2022/05/08 06:14:15;;;;;;;7.68;5.07;;;14.90;99.90;;;;;;5073118;28;20048;-81
2022/05/08 06:16:42;;;;;;;6.40;5.18;;;14.30;99.90;;;;;;5072778;28;20499;-80
2022/05/08 06:19:09;;;;;;;5.25;4.43;;;13.90;99.90;;;;;;5072851;28;20036;-80
2022/05/08 06:21:35;;;;;;;6.35;4.95;;;13.80;99.90;;;;;;5063248;28;20032;-80
2022/05/08 06:24:01;;;;;;;5.60;5.03;;;13.70;99.90;;;;;;5072028;28;20040;-80
2022/05/08 06:26:27;;;;;;;4.72;4.32;;;13.50;99.90;;;;;;5073138;28;20032;-80
2022/05/08 06:28:55;;;;;;;6.65;4.72;;;13.60;99.90;;;;;;5072270;28;20276;-80
2022/05/08 06:31:22;;;;;;;5.88;4.95;;;13.60;99.90;;;;;;5072911;28;20052;-80
2022/05/08 06:33:49;;;;;;;6.88;5.32;;;13.50;99.90;;;;;;5072201;28;20039;-80
2022/05/08 06:36:15;;;;;;;8.82;5.22;;;13.60;99.90;;;;;;5072611;28;20032;-80
2022/05/08 06:38:41;;;;;;;4.50;4.10;;;13.60;99.90;;;;;;5071773;28;20047;-80
2022/05/08 06:41:08;;;;;;;5.43;4.13;;;13.90;99.90;;;;;;5072560;28;20127;-81
2022/05/08 06:43:35;;;;;;;5.82;4.18;;;14.30;99.90;;;;;;5060764;28;20033;-81
2022/05/08 06:46:01;;;;;;;7.63;5.18;;;14.20;99.90;;;;;;5052945;28;20053;-81
2022/05/08 06:48:27;;;;;;;5.10;4.63;;;14.10;99.90;;;;;;5053445;28;20033;-79
2022/05/08 06:50:53;;;;;;;4.40;4.00;;;14.00;99.90;;;;;;5037897;28;20253;-78
2022/05/08 06:53:20;;;;;;;6.40;4.90;;;14.10;99.90;;;;;;5041637;28;20032;-77
2022/05/08 06:55:46;;;;;;;4.95;4.50;;;14.20;99.90;;;;;;5073553;28;20036;-78
2022/05/08 06:58:13;;;;;;;6.10;4.22;;;14.30;99.90;;;;;;5057426;28;20037;-78
2022/05/08 07:03:24;;;;;;;5.80;4.65;;;14.70;99.90;;;;;;5070744;28;20039;-77
2022/05/08 07:05:50;;;;;;;6.80;4.35;;;14.80;99.90;;;;;;5064928;28;20040;-79
2022/05/08 07:08:17;;;;;;;6.05;3.83;;;15.20;99.90;;;;;;5072531;28;20043;-78
2022/05/08 07:10:43;;;;;;;8.38;3.47;;;15.40;99.90;;;;;;5053415;28;20040;-78
2022/05/08 07:13:10;;;;;;;6.80;4.22;;;16.10;99.90;;;;;;5071593;28;20496;-80
2022/05/08 07:15:36;;;;;;;5.30;2.80;;;16.90;99.90;;;;;;5067116;28;20033;-80
2022/05/08 07:18:03;;;;;;;4.72;3.67;;;17.70;97.40;;;;;;5064790;28;20047;-78
2022/05/08 07:20:33;;;;;;;8.93;2.95;;;17.70;95.80;;;;;;5047363;28;20036;-80
2022/05/08 07:23:00;;;;;;;3.35;3.00;;;17.70;95.30;;;;;;5067555;28;20396;-76
2022/05/08 07:25:26;;;;;;;3.33;2.72;;;17.90;94.30;;;;;;5065843;28;20028;-79
2022/05/08 07:27:52;;;;;;;4.65;2.80;;;18.00;94.10;;;;;;5061514;28;20024;-79
2022/05/08 07:30:20;;;;;;;3.13;2.83;;;18.40;93.30;;;;;;5066850;28;20025;-82
2022/05/08 07:32:48;;;;;;;3.33;2.75;;;18.90;91.10;;;;;;5068158;28;20028;-78
2022/05/08 07:38:00;;;;;;;3.97;3.10;;;19.50;86.30;;;;;;5064776;28;20045;-78
2022/05/08 07:40:29;;;;;;;4.63;3.20;;;19.70;83.60;;;;;;5060655;28;20048;-79
2022/05/08 07:42:57;;;;;;;5.07;3.35;;;19.40;84.30;;;;;;5045225;28;20028;-80
2022/05/08 07:45:24;;;;;;;4.93;3.38;;;19.90;81.40;;;;;;5067459;28;20024;-79
2022/05/08 07:47:50;;;;;;;3.35;2.25;;;20.00;79.20;;;;;;5070690;28;20029;-80
2022/05/08 07:50:19;;;;;;;3.25;2.92;;;20.00;82.30;;;;;;5070943;28;20048;-81
2022/05/08 07:52:45;;;;;;;2.45;2.22;;;20.60;76.50;;;;;;5047957;28;20033;-80
2022/05/08 07:55:11;;;;;;;2.90;2.30;;;21.30;74.30;;;;;;5046211;28;20516;-80
2022/05/08 07:57:37;;;;;;;2.90;2.17;;;21.20;73.90;;;;;;5063945;28;20020;-80
2022/05/08 08:00:05;;;;;;;2.80;2.10;;;21.00;74.10;;;;;;5068886;28;20045;-79
2022/05/08 08:02:40;;;;;;;3.28;2.30;;;20.40;75.30;;;;;;5076840;28;20040;-80
2022/05/08 08:05:06;;;;;;;9.85;2.58;;;20.60;76.10;;;;;;5068038;28;20032;-80
2022/05/08 08:07:33;;;;;;;3.22;2.50;;;21.30;73.20;;;;;;5071276;28;20388;-79
2022/05/08 08:09:59;;;;;;;6.72;2.63;;;22.00;69.60;;;;;;5070899;28;20037;-80
2022/05/08 08:12:26;;;;;;;5.15;2.88;;;21.70;68.20;;;;;;5048779;28;20040;-81
2022/05/08 08:14:52;;;;;;;9.07;2.75;;;21.90;69.20;;;;;;5069533;28;20059;-77
2022/05/08 08:17:19;;;;;;;3.53;2.13;;;22.00;67.30;;;;;;5067178;28;20040;-77
2022/05/08 08:19:45;;;;;;;3.78;2.30;;;21.70;68.10;;;;;;5070592;28;20127;-78
2022/05/08 08:22:11;;;;;;;4.05;2.35;;;21.40;67.60;;;;;;5069783;28;20491;-77
2022/05/08 08:24:37;;;;;;;3.40;2.70;;;22.10;67.10;;;;;;5068627;28;20048;-81
2022/05/08 08:27:04;;;;;;;3.90;2.47;;;22.10;67.50;;;;;;5051503;28;20457;-78
2022/05/08 08:29:30;;;;;;;4.97;2.65;;;22.10;64.70;;;;;;5071035;28;20473;-80
2022/05/08 08:31:56;;;;;;;3.10;2.47;;;21.90;65.20;;;;;;5052426;28;20040;-80
2022/05/08 08:34:22;;;;;;;3.97;3.00;;;22.30;64.80;;;;;;5054133;28;20033;-80
2022/05/08 08:36:49;;;;;;;3.00;2.58;;;22.00;63.10;;;;;;5052744;28;20047;-81
2022/05/08 08:39:16;;;;;;;3.72;2.58;;;21.90;62.50;;;;;;5043142;28;20049;-80
2022/05/08 08:41:44;;;;;;;5.38;2.65;;;22.50;60.90;;;;;;5048497;28;20040;-80
2022/05/08 08:49:52;;;;;;;2.80;2.10;;;22.60;63.00;;;;;;5044351;28;20040;-81
2022/05/08 08:52:22;;;;;;;2.63;2.42;;;22.90;60.60;;;;;;5050853;28;20032;-81
2022/05/08 08:54:48;;;;;;;;;;;22.50;60.80;;;;;;5049828;28;20037;-79
2022/05/08 08:57:14;;;;;;;3.97;2.20;;;22.20;62.20;;;;;;5050647;28;19908;-80
2022/05/08 08:59:40;;;;;;;4.60;1.75;;;21.50;63.60;;;;;;5054070;28;20040;-80
2022/05/08 09:02:15;;;;;;;4.63;2.70;;;21.50;63.10;;;;;;5054702;28;20029;-81
2022/05/08 09:04:44;;;;;;;3.38;2.53;;;22.50;61.50;;;;;;5053530;28;20037;-81
2022/05/08 09:07:38;;;;;;;3.50;2.08;;;23.00;60.60;;;;;;5052801;28;20040;-84
2022/05/08 09:10:07;;;;;;;3.00;2.25;;;23.10;60.00;;;;;;5048420;28;20029;-81
2022/05/08 09:12:34;;;;;;;3.15;2.38;;;22.30;61.60;;;;;;5054394;28;20462;-81
2022/05/08 09:15:19;;;;;;;3.47;2.15;;;22.90;61.60;;;;;;5053568;28;20032;-84
2022/05/08 09:17:47;;;;;;;4.65;2.55;;;23.20;59.50;;;;;;5054763;28;20033;-82
2022/05/08 09:20:34;;;;;;;3.88;2.42;;;24.30;58.90;;;;;;5053919;28;20496;-81
2022/05/08 09:23:07;;;;;;;3.75;2.03;;;24.30;59.00;;;;;;5052424;28;20059;-80
2022/05/08 09:25:57;;;;;;;2.50;1.80;;;23.60;58.30;;;;;;5037593;28;20029;-80
2022/05/08 09:28:40;;;;;;;3.45;2.55;;;22.50;59.90;;;;;;5049169;28;20036;-77
2022/05/08 09:31:14;;;;;;;2.45;1.85;;;23.50;58.30;;;;;;5054149;28;20029;-81
2022/05/08 09:33:49;;;;;;;3.13;2.85;;;24.30;57.60;;;;;;5051942;28;20132;-82
2022/05/08 09:36:22;;;;;;;3.50;2.40;;;24.20;56.50;;;;;;5052596;28;20029;-83
2022/05/08 09:39:02;;;;;;;6.63;2.10;;;23.70;58.50;;;;;;5063455;28;20053;-82
2022/05/08 09:41:30;;;;;;;2.45;2.13;;;24.60;57.20;;;;;;5074602;28;20055;-84
2022/05/08 09:44:13;;;;;;;2.58;2.15;;;24.20;55.90;;;;;;5074584;28;20020;-82
2022/05/08 09:46:43;;;;;;;2.75;2.22;;;23.60;55.90;;;;;;5073668;28;20039;-80
2022/05/08 09:49:11;;;;;;;4.70;2.00;;;23.60;56.60;;;;;;5072962;28;20040;-82
2022/05/08 09:51:40;;;;;;;2.42;2.00;;;23.40;57.90;;;;;;5076167;28;20028;-82
2022/05/08 09:54:07;;;;;;;2.17;1.98;;;23.10;57.70;;;;;;5075575;28;20036;-81
2022/05/08 09:56:35;;;;;;;5.45;2.33;;;23.50;58.60;;;;;;5073156;28;20039;-82
2022/05/08 09:59:07;;;;;;;3.72;2.63;;;23.40;57.00;;;;;;5051436;28;20135;-81
2022/05/08 10:01:34;;;;;;;3.03;2.50;;;22.80;57.80;;;;;;5071649;28;20039;-83
2022/05/08 10:04:00;;;;;;;3.17;2.53;;;22.40;58.60;;;;;;5073164;28;20032;-83
2022/05/08 10:06:28;;;;;;;3.28;2.15;;;22.10;58.70;;;;;;5046324;28;20033;-79
2022/05/08 10:13:53;;;;;;;2.60;2.40;;;22.30;60.60;;;;;;5055247;28;20044;-80
2022/05/08 10:14:30;;;;;;;4.90;2.70;;;22.10;60.50;;;;;;5072691;28;20449;-81
2022/05/08 10:16:59;;;;;;;3.45;2.50;;;22.10;59.70;;;;;;5070571;28;20492;-81
2022/05/08 10:19:25;;;;;;;2.53;2.33;;;21.90;60.40;;;;;;5067777;28;20048;-79
2022/05/08 10:21:57;;;;;;;2.88;2.30;;;22.10;60.10;;;;;;5070552;28;20374;-78
2022/05/08 10:24:34;;;;;;;4.50;2.35;;;22.40;60.40;;;;;;5064615;28;20396;-78
2022/05/08 10:27:33;;;;;;;2.75;2.25;;;22.40;60.60;;;;;;5066490;28;20043;-77
2022/05/08 10:30:01;;;;;;;5.70;2.15;;;22.50;61.20;;;;;;5061004;28;20115;-78
2022/05/08 10:32:32;;;;;;;2.87;1.87;;;22.70;60.80;;;;;;5062058;28;20040;-79
2022/05/08 10:35:14;;;;;;;4.28;3.22;;;22.70;59.60;;;;;;5053504;28;20020;-77
2022/05/08 10:37:46;;;;;;;5.07;2.65;;;22.50;59.20;;;;;;5067831;28;20053;-77
2022/05/08 10:40:24;;;;;;;3.85;2.45;;;22.70;57.70;;;;;;5064460;28;20500;-77
2022/05/08 10:42:55;;;;;;;2.35;2.15;;;22.90;59.60;;;;;;5066789;28;20036;-77
2022/05/08 10:45:33;;;;;;;1.83;1.50;;;23.00;60.40;;;;;;5053550;28;20032;-77
2022/05/08 10:48:08;;;;;;;4.13;2.25;;;23.10;60.30;;;;;;5070067;28;20079;-77
2022/05/08 10:50:35;;;;;;;3.72;2.95;;;23.60;59.10;;;;;;5072124;28;20035;-78
2022/05/08 10:53:01;;;;;;;3.45;2.50;;;23.20;58.70;;;;;;5070902;28;20036;-77
2022/05/08 10:55:28;;;;;;;3.08;2.25;;;23.10;59.30;;;;;;5071118;28;20500;-83
2022/05/08 10:57:55;;;;;;;3.80;2.40;;;22.60;59.10;;;;;;5070784;28;20024;-82
2022/05/08 11:00:30;;;;;;;7.63;3.00;;;22.30;59.80;;;;;;5069767;28;20477;-82
2022/05/08 11:03:03;;;;;;;3.15;2.70;;;21.90;60.00;;;;;;5067587;28;20040;-79
2022/05/08 11:05:36;;;;;;;2.28;1.95;;;22.00;60.20;;;;;;5066060;28;20036;-79
2022/05/08 11:08:10;;;;;;;6.28;2.33;;;22.10;59.80;;;;;;5069265;28;20481;-80
2022/05/08 11:10:39;;;;;;;3.08;2.50;;;22.40;60.00;;;;;;5048772;28;20036;-78
2022/05/08 11:13:26;;;;;;;3.33;2.05;;;22.90;60.20;;;;;;5071174;28;20451;-79
2022/05/08 11:15:53;;;;;;;3.20;2.42;;;23.50;58.40;;;;;;5068477;28;20037;-79
2022/05/08 11:18:24;;;;;;;2.78;2.20;;;23.60;57.80;;;;;;5069426;28;20488;-82
2022/05/08 11:20:59;;;;;;;5.20;1.75;;;23.20;57.90;;;;;;5071146;28;20051;-80
2022/05/08 11:23:34;;;;;;;4.47;3.05;;;22.50;59.50;;;;;;5069202;28;20055;-81
2022/05/08 11:26:11;;;;;;;4.28;2.25;;;22.30;59.40;;;;;;5066500;28;20469;-80
2022/05/08 11:28:49;;;;;;;2.42;2.13;;;22.40;59.70;;;;;;5054056;28;20044;-80
2022/05/08 11:31:19;;;;;;;4.47;2.33;;;22.50;57.80;;;;;;5069398;28;20504;-80
2022/05/08 11:36:33;;;;;;;5.28;3.00;;;22.80;57.60;;;;;;5068100;28;20465;-81
2022/05/08 11:39:04;;;;;;;2.03;1.80;;;22.80;56.10;;;;;;5069071;28;20292;-85
2022/05/08 11:41:38;;;;;;;2.95;1.85;;;22.50;55.10;;;;;;5032473;28;20051;-81
2022/05/08 11:44:13;;;;;;;3.97;2.22;;;22.40;55.60;;;;;;5071078;28;20028;-81
2022/05/08 11:46:50;;;;;;;2.65;1.45;;;22.20;56.10;;;;;;5049022;28;20033;-83
2022/05/08 11:49:16;;;;;;;2.38;1.77;;;22.10;56.20;;;;;;5052826;28;20044;-81
2022/05/08 11:51:44;;;;;;;4.07;2.38;;;22.20;56.30;;;;;;5072316;28;20055;-79
2022/05/08 11:54:27;;;;;;;2.45;1.98;;;22.10;57.20;;;;;;5069447;28;20453;-83
2022/05/08 11:57:12;;;;;;;3.22;2.60;;;22.10;58.60;;;;;;5069193;28;20485;-80
2022/05/08 11:59:39;;;;;;;3.10;2.30;;;22.20;59.20;;;;;;5073167;28;20051;-85
2022/05/08 12:02:05;;;;;;;3.30;2.25;;;22.40;57.80;;;;;;5071823;28;20095;-80
2022/05/08 12:04:35;;;;;;;1.30;1.20;;;22.10;58.50;;;;;;5035319;28;20044;-81
2022/05/08 12:07:03;;;;;;;2.38;2.10;;;22.10;58.10;;;;;;5051523;28;20036;-85
2022/05/08 12:09:31;;;;;;;2.20;1.92;;;22.10;57.80;;;;;;5071484;28;20053;-81
2022/05/08 12:12:23;;;;;;;2.40;1.95;;;22.40;57.90;;;;;;5071716;28;20055;-80
2022/05/08 12:14:50;;;;;;;3.45;2.08;;;23.20;56.80;;;;;;5071014;28;20041;-86
2022/05/08 12:17:16;;;;;;;1.98;1.60;;;23.50;54.20;;;;;;5068106;28;20052;-79
2022/05/08 12:19:53;;;;;;;2.70;1.48;;;23.60;53.70;;;;;;5070729;28;20032;-80
2022/05/08 12:22:28;;;;;;;3.67;2.08;;;23.50;53.50;;;;;;5052023;28;20036;-84
2022/05/08 12:24:58;;;;;;;2.42;1.98;;;23.00;53.30;;;;;;5061668;28;20029;-80
2022/05/08 12:27:24;;;;;;;5.85;1.90;;;23.00;54.30;;;;;;5071746;28;20458;-81
2022/05/08 12:29:51;;;;;;;4.35;1.63;;;23.10;56.10;;;;;;5070958;28;20036;-81
2022/05/08 12:32:18;;;;;;;6.43;2.05;;;23.30;55.10;;;;;;5071031;28;20029;-82
2022/05/08 12:34:46;;;;;;;2.08;1.90;;;23.10;55.00;;;;;;5072685;28;20040;-85
2022/05/08 12:37:15;;;;;;;5.65;2.13;;;22.90;52.60;;;;;;5067321;28;20037;-82
2022/05/08 12:39:42;;;;;;;2.05;1.77;;;22.90;53.90;;;;;;5074789;28;20029;-79
2022/05/08 12:42:11;;;;;;;3.53;1.98;;;22.70;53.00;;;;;;5072853;28;20032;-79
2022/05/08 12:44:38;;;;;;;1.40;1.30;;;22.80;53.40;;;;;;5066344;28;20028;-79
2022/05/08 12:47:06;;;;;;;2.90;2.00;;;22.70;52.90;;;;;;5045415;28;20048;-79
2022/05/08 12:49:37;;;;;;;2.22;2.03;;;22.60;53.30;;;;;;5056784;28;20085;-85
2022/05/08 12:52:05;;;;;;;1.73;1.48;;;22.70;53.50;;;;;;5068704;28;20460;-79
2022/05/08 12:54:32;;;;;;;4.45;1.95;;;22.70;52.50;;;;;;5067648;28;20028;-79
2022/05/08 12:57:01;;;;;;;2.25;1.75;;;22.70;52.50;;;;;;5069120;28;20029;-79
2022/05/08 13:02:15;;;;;;;3.38;1.70;;;23.00;52.30;;;;;;5073783;28;20465;-79
2022/05/08 13:04:42;;;;;;;;;;;23.10;52.10;;;;;;5056317;28;20049;-81
2022/05/08 13:07:09;;;;;;;4.88;1.92;;;23.50;51.80;;;;;;5052253;28;19908;-81
2022/05/08 13:09:35;;;;;;;3.70;2.10;;;23.50;51.30;;;;;;5038528;28;20056;-79
2022/05/08 13:12:03;;;;;;;3.47;1.77;;;23.90;52.10;;;;;;5070250;28;20264;-79
2022/05/08 13:14:30;;;;;;;3.38;1.40;;;24.10;51.10;;;;;;5067003;28;20036;-80
2022/05/08 13:17:01;;;;;;;2.45;1.50;;;24.10;51.50;;;;;;5069764;28;20025;-82
2022/05/08 13:19:29;;;;;;;3.65;2.00;;;24.10;51.30;;;;;;5054999;28;20044;-82
2022/05/08 13:21:56;;;;;;;1.65;1.55;;;24.10;51.30;;;;;;5068126;28;20381;-83